sensor_id;sensor_type;location;lat;lon;timestamp;P1;durP1;ratioP1;P2;durP2;ratioP2
71303;SDS011;59091;47.446;19.148;2023-12-04T00:00:59;14.95;;;8.57;;
71303;SDS011;59091;47.446;19.148;2023-12-04T00:03:24;15.90;;;8.55;;
71303;SDS011;59091;47.446;19.148;2023-12-04T00:05:50;14.00;;;8.77;;
71303;SDS011;59091;47.446;19.148;2023-12-04T00:08:15;19.50;;;9.05;;
71303;SDS011;59091;47.446;19.148;2023-12-04T00:10:40;17.13;;;9.10;;
71303;SDS011;59091;47.446;19.148;2023-12-04T00:13:06;15.02;;;8.50;;
71303;SDS011;59091;47.446;19.148;2023-12-04T00:15:31;17.17;;;8.80;;
71303;SDS011;59091;47.446;19.148;2023-12-04T00:17:57;17.02;;;9.77;;
71303;SDS011;59091;47.446;19.148;2023-12-04T00:20:22;15.77;;;8.45;;
71303;SDS011;59091;47.446;19.148;2023-12-04T00:22:47;16.55;;;8.98;;
71303;SDS011;59091;47.446;19.148;2023-12-04T00:25:13;19.58;;;9.98;;
71303;SDS011;59091;47.446;19.148;2023-12-04T00:27:38;15.48;;;8.52;;
71303;SDS011;59091;47.446;19.148;2023-12-04T00:30:04;17.90;;;9.07;;
71303;SDS011;59091;47.446;19.148;2023-12-04T00:32:31;15.40;;;9.27;;
71303;SDS011;59091;47.446;19.148;2023-12-04T00:34:56;20.13;;;9.63;;
71303;SDS011;59091;47.446;19.148;2023-12-04T00:37:22;16.90;;;9.35;;
71303;SDS011;59091;47.446;19.148;2023-12-04T00:39:47;19.73;;;10.15;;
71303;SDS011;59091;47.446;19.148;2023-12-04T00:42:13;18.52;;;10.05;;
71303;SDS011;59091;47.446;19.148;2023-12-04T00:44:38;17.83;;;10.30;;
71303;SDS011;59091;47.446;19.148;2023-12-04T00:47:03;19.88;;;10.13;;
71303;SDS011;59091;47.446;19.148;2023-12-04T00:49:29;17.58;;;10.00;;
71303;SDS011;59091;47.446;19.148;2023-12-04T00:51:54;23.33;;;10.57;;
71303;SDS011;59091;47.446;19.148;2023-12-04T00:54:20;19.77;;;10.70;;
71303;SDS011;59091;47.446;19.148;2023-12-04T00:56:45;20.65;;;10.00;;
71303;SDS011;59091;47.446;19.148;2023-12-04T00:59:10;18.00;;;9.88;;
71303;SDS011;59091;47.446;19.148;2023-12-04T01:01:36;19.00;;;9.50;;
71303;SDS011;59091;47.446;19.148;2023-12-04T01:04:02;19.85;;;10.10;;
71303;SDS011;59091;47.446;19.148;2023-12-04T01:06:27;19.80;;;10.10;;
71303;SDS011;59091;47.446;19.148;2023-12-04T01:08:54;16.02;;;9.27;;
71303;SDS011;59091;47.446;19.148;2023-12-04T01:11:19;19.98;;;9.98;;
71303;SDS011;59091;47.446;19.148;2023-12-04T01:13:45;18.98;;;9.50;;
71303;SDS011;59091;47.446;19.148;2023-12-04T01:16:11;19.85;;;9.85;;
71303;SDS011;59091;47.446;19.148;2023-12-04T01:18:36;16.42;;;9.25;;
71303;SDS011;59091;47.446;19.148;2023-12-04T01:21:02;17.13;;;9.43;;
71303;SDS011;59091;47.446;19.148;2023-12-04T01:23:28;16.52;;;9.55;;
71303;SDS011;59091;47.446;19.148;2023-12-04T01:25:53;15.90;;;8.73;;
71303;SDS011;59091;47.446;19.148;2023-12-04T01:28:19;17.88;;;9.73;;
71303;SDS011;59091;47.446;19.148;2023-12-04T01:30:44;19.60;;;9.70;;
71303;SDS011;59091;47.446;19.148;2023-12-04T01:33:10;17.65;;;9.40;;
71303;SDS011;59091;47.446;19.148;2023-12-04T01:35:35;19.50;;;9.38;;
71303;SDS011;59091;47.446;19.148;2023-12-04T01:38:01;18.40;;;9.80;;
71303;SDS011;59091;47.446;19.148;2023-12-04T01:40:26;18.90;;;10.18;;
71303;SDS011;59091;47.446;19.148;2023-12-04T01:42:52;18.50;;;10.07;;
71303;SDS011;59091;47.446;19.148;2023-12-04T01:45:17;20.83;;;10.25;;
71303;SDS011;59091;47.446;19.148;2023-12-04T01:47:44;21.70;;;10.85;;
71303;SDS011;59091;47.446;19.148;2023-12-04T01:50:10;22.48;;;11.45;;
71303;SDS011;59091;47.446;19.148;2023-12-04T01:52:37;27.65;;;13.65;;
71303;SDS011;59091;47.446;19.148;2023-12-04T01:55:03;27.40;;;14.10;;
71303;SDS011;59091;47.446;19.148;2023-12-04T01:57:31;28.27;;;13.55;;
71303;SDS011;59091;47.446;19.148;2023-12-04T01:59:56;26.48;;;13.82;;
71303;SDS011;59091;47.446;19.148;2023-12-04T02:02:22;27.13;;;13.02;;
71303;SDS011;59091;47.446;19.148;2023-12-04T02:04:47;21.33;;;11.63;;
71303;SDS011;59091;47.446;19.148;2023-12-04T02:07:13;23.60;;;12.13;;
71303;SDS011;59091;47.446;19.148;2023-12-04T02:09:38;26.30;;;11.55;;
71303;SDS011;59091;47.446;19.148;2023-12-04T02:12:04;19.35;;;10.35;;
71303;SDS011;59091;47.446;19.148;2023-12-04T02:14:30;20.55;;;10.55;;
71303;SDS011;59091;47.446;19.148;2023-12-04T02:16:55;21.52;;;10.50;;
71303;SDS011;59091;47.446;19.148;2023-12-04T02:19:22;21.73;;;11.18;;
71303;SDS011;59091;47.446;19.148;2023-12-04T02:21:48;23.52;;;11.07;;
71303;SDS011;59091;47.446;19.148;2023-12-04T02:24:14;17.92;;;10.48;;
71303;SDS011;59091;47.446;19.148;2023-12-04T02:26:40;19.10;;;9.90;;
71303;SDS011;59091;47.446;19.148;2023-12-04T02:29:13;20.10;;;10.48;;
71303;SDS011;59091;47.446;19.148;2023-12-04T02:31:42;22.15;;;10.88;;
71303;SDS011;59091;47.446;19.148;2023-12-04T02:34:09;26.35;;;10.68;;
71303;SDS011;59091;47.446;19.148;2023-12-04T02:36:38;22.52;;;10.68;;
71303;SDS011;59091;47.446;19.148;2023-12-04T02:39:05;20.52;;;11.13;;
71303;SDS011;59091;47.446;19.148;2023-12-04T02:41:30;20.63;;;10.63;;
71303;SDS011;59091;47.446;19.148;2023-12-04T02:43:56;21.42;;;11.25;;
71303;SDS011;59091;47.446;19.148;2023-12-04T02:46:21;22.95;;;11.75;;
71303;SDS011;59091;47.446;19.148;2023-12-04T02:48:47;19.67;;;10.77;;
71303;SDS011;59091;47.446;19.148;2023-12-04T02:51:12;23.02;;;11.05;;
71303;SDS011;59091;47.446;19.148;2023-12-04T02:53:38;27.42;;;12.88;;
71303;SDS011;59091;47.446;19.148;2023-12-04T02:56:03;29.90;;;12.30;;
71303;SDS011;59091;47.446;19.148;2023-12-04T02:58:29;25.83;;;11.73;;
71303;SDS011;59091;47.446;19.148;2023-12-04T03:00:54;33.15;;;13.43;;
71303;SDS011;59091;47.446;19.148;2023-12-04T03:03:20;30.65;;;13.32;;
71303;SDS011;59091;47.446;19.148;2023-12-04T03:05:45;30.25;;;12.70;;
71303;SDS011;59091;47.446;19.148;2023-12-04T03:08:11;23.80;;;11.98;;
71303;SDS011;59091;47.446;19.148;2023-12-04T03:10:36;25.95;;;11.52;;
71303;SDS011;59091;47.446;19.148;2023-12-04T03:13:01;26.88;;;11.90;;
71303;SDS011;59091;47.446;19.148;2023-12-04T03:15:27;25.05;;;12.05;;
71303;SDS011;59091;47.446;19.148;2023-12-04T03:17:54;27.63;;;12.32;;
71303;SDS011;59091;47.446;19.148;2023-12-04T03:20:20;21.17;;;11.88;;
71303;SDS011;59091;47.446;19.148;2023-12-04T03:22:45;22.63;;;11.98;;
71303;SDS011;59091;47.446;19.148;2023-12-04T03:25:10;22.13;;;11.65;;
71303;SDS011;59091;47.446;19.148;2023-12-04T03:27:36;25.23;;;11.65;;
71303;SDS011;59091;47.446;19.148;2023-12-04T03:30:01;24.25;;;11.00;;
71303;SDS011;59091;47.446;19.148;2023-12-04T03:32:27;24.25;;;11.65;;
71303;SDS011;59091;47.446;19.148;2023-12-04T03:34:53;23.77;;;11.73;;
71303;SDS011;59091;47.446;19.148;2023-12-04T03:37:18;21.23;;;11.90;;
71303;SDS011;59091;47.446;19.148;2023-12-04T03:39:43;21.17;;;11.55;;
71303;SDS011;59091;47.446;19.148;2023-12-04T03:42:09;16.23;;;8.23;;
71303;SDS011;59091;47.446;19.148;2023-12-04T03:44:34;25.40;;;12.48;;
71303;SDS011;59091;47.446;19.148;2023-12-04T03:47:00;20.88;;;11.80;;
71303;SDS011;59091;47.446;19.148;2023-12-04T03:49:25;22.00;;;11.93;;
71303;SDS011;59091;47.446;19.148;2023-12-04T03:51:50;22.48;;;11.93;;
71303;SDS011;59091;47.446;19.148;2023-12-04T03:54:16;23.98;;;12.40;;
71303;SDS011;59091;47.446;19.148;2023-12-04T03:56:41;21.63;;;11.35;;
71303;SDS011;59091;47.446;19.148;2023-12-04T03:59:08;25.60;;;12.60;;
71303;SDS011;59091;47.446;19.148;2023-12-04T04:01:34;20.92;;;11.70;;
71303;SDS011;59091;47.446;19.148;2023-12-04T04:03:59;26.65;;;12.98;;
71303;SDS011;59091;47.446;19.148;2023-12-04T04:06:24;19.98;;;11.50;;
71303;SDS011;59091;47.446;19.148;2023-12-04T04:08:50;26.85;;;13.45;;
71303;SDS011;59091;47.446;19.148;2023-12-04T04:11:17;25.77;;;13.52;;
71303;SDS011;59091;47.446;19.148;2023-12-04T04:13:42;28.17;;;14.15;;
71303;SDS011;59091;47.446;19.148;2023-12-04T04:16:12;31.08;;;14.63;;
71303;SDS011;59091;47.446;19.148;2023-12-04T04:18:40;25.73;;;14.25;;
71303;SDS011;59091;47.446;19.148;2023-12-04T04:21:05;27.27;;;14.23;;
71303;SDS011;59091;47.446;19.148;2023-12-04T04:23:31;27.90;;;14.75;;
71303;SDS011;59091;47.446;19.148;2023-12-04T04:25:56;28.27;;;14.60;;
71303;SDS011;59091;47.446;19.148;2023-12-04T04:28:21;25.58;;;13.80;;
71303;SDS011;59091;47.446;19.148;2023-12-04T04:30:47;26.42;;;13.98;;
71303;SDS011;59091;47.446;19.148;2023-12-04T04:33:12;26.40;;;12.85;;
71303;SDS011;59091;47.446;19.148;2023-12-04T04:35:38;31.13;;;14.05;;
71303;SDS011;59091;47.446;19.148;2023-12-04T04:38:03;24.02;;;13.63;;
71303;SDS011;59091;47.446;19.148;2023-12-04T04:40:29;23.23;;;12.63;;
71303;SDS011;59091;47.446;19.148;2023-12-04T04:42:54;25.83;;;13.02;;
71303;SDS011;59091;47.446;19.148;2023-12-04T04:45:20;26.10;;;13.45;;
71303;SDS011;59091;47.446;19.148;2023-12-04T04:47:45;27.52;;;14.68;;
71303;SDS011;59091;47.446;19.148;2023-12-04T04:50:10;27.45;;;14.48;;
71303;SDS011;59091;47.446;19.148;2023-12-04T04:52:36;29.00;;;15.02;;
71303;SDS011;59091;47.446;19.148;2023-12-04T04:55:01;34.78;;;15.45;;
71303;SDS011;59091;47.446;19.148;2023-12-04T04:57:27;28.33;;;14.30;;
71303;SDS011;59091;47.446;19.148;2023-12-04T04:59:52;29.63;;;15.18;;
71303;SDS011;59091;47.446;19.148;2023-12-04T05:02:18;32.67;;;14.55;;
71303;SDS011;59091;47.446;19.148;2023-12-04T05:04:43;31.52;;;15.32;;
71303;SDS011;59091;47.446;19.148;2023-12-04T05:07:08;32.35;;;15.32;;
71303;SDS011;59091;47.446;19.148;2023-12-04T05:09:34;36.92;;;15.93;;
71303;SDS011;59091;47.446;19.148;2023-12-04T05:11:59;33.33;;;15.35;;
71303;SDS011;59091;47.446;19.148;2023-12-04T05:14:25;32.70;;;15.90;;
71303;SDS011;59091;47.446;19.148;2023-12-04T05:16:52;28.98;;;14.60;;
71303;SDS011;59091;47.446;19.148;2023-12-04T05:19:17;27.55;;;15.55;;
71303;SDS011;59091;47.446;19.148;2023-12-04T05:21:42;32.63;;;15.30;;
71303;SDS011;59091;47.446;19.148;2023-12-04T05:24:08;29.75;;;14.20;;
71303;SDS011;59091;47.446;19.148;2023-12-04T05:26:33;33.28;;;15.00;;
71303;SDS011;59091;47.446;19.148;2023-12-04T05:28:59;31.92;;;15.40;;
71303;SDS011;59091;47.446;19.148;2023-12-04T05:31:24;29.00;;;14.95;;
71303;SDS011;59091;47.446;19.148;2023-12-04T05:33:49;31.15;;;14.90;;
71303;SDS011;59091;47.446;19.148;2023-12-04T05:36:15;29.48;;;15.50;;
71303;SDS011;59091;47.446;19.148;2023-12-04T05:38:40;40.08;;;15.45;;
71303;SDS011;59091;47.446;19.148;2023-12-04T05:41:06;32.58;;;16.98;;
71303;SDS011;59091;47.446;19.148;2023-12-04T05:43:31;38.25;;;17.08;;
71303;SDS011;59091;47.446;19.148;2023-12-04T05:45:56;39.28;;;17.02;;
71303;SDS011;59091;47.446;19.148;2023-12-04T05:48:22;36.05;;;17.13;;
71303;SDS011;59091;47.446;19.148;2023-12-04T05:50:47;45.00;;;19.02;;
71303;SDS011;59091;47.446;19.148;2023-12-04T05:53:13;35.95;;;17.08;;
71303;SDS011;59091;47.446;19.148;2023-12-04T05:55:38;37.88;;;17.35;;
71303;SDS011;59091;47.446;19.148;2023-12-04T05:58:04;35.85;;;16.13;;
71303;SDS011;59091;47.446;19.148;2023-12-04T06:00:29;26.58;;;15.35;;
71303;SDS011;59091;47.446;19.148;2023-12-04T06:02:54;27.58;;;15.95;;
71303;SDS011;59091;47.446;19.148;2023-12-04T06:05:20;30.65;;;16.63;;
71303;SDS011;59091;47.446;19.148;2023-12-04T06:07:45;33.80;;;16.67;;
71303;SDS011;59091;47.446;19.148;2023-12-04T06:10:11;34.13;;;16.10;;
71303;SDS011;59091;47.446;19.148;2023-12-04T06:12:36;32.72;;;16.58;;
71303;SDS011;59091;47.446;19.148;2023-12-04T06:15:02;30.23;;;16.13;;
71303;SDS011;59091;47.446;19.148;2023-12-04T06:17:27;39.15;;;17.70;;
71303;SDS011;59091;47.446;19.148;2023-12-04T06:19:53;34.63;;;17.15;;
71303;SDS011;59091;47.446;19.148;2023-12-04T06:22:19;32.20;;;17.20;;
71303;SDS011;59091;47.446;19.148;2023-12-04T06:24:46;32.22;;;17.17;;
71303;SDS011;59091;47.446;19.148;2023-12-04T06:27:13;33.38;;;16.40;;
71303;SDS011;59091;47.446;19.148;2023-12-04T06:29:41;36.30;;;18.98;;
71303;SDS011;59091;47.446;19.148;2023-12-04T06:32:07;36.28;;;19.33;;
71303;SDS011;59091;47.446;19.148;2023-12-04T06:34:33;38.40;;;20.40;;
71303;SDS011;59091;47.446;19.148;2023-12-04T06:36:59;46.70;;;20.58;;
71303;SDS011;59091;47.446;19.148;2023-12-04T06:39:27;45.85;;;23.27;;
71303;SDS011;59091;47.446;19.148;2023-12-04T06:41:57;44.15;;;21.98;;
71303;SDS011;59091;47.446;19.148;2023-12-04T06:44:22;37.88;;;19.77;;
71303;SDS011;59091;47.446;19.148;2023-12-04T06:46:48;41.63;;;21.83;;
71303;SDS011;59091;47.446;19.148;2023-12-04T06:49:16;51.63;;;22.10;;
71303;SDS011;59091;47.446;19.148;2023-12-04T06:51:42;53.08;;;25.25;;
71303;SDS011;59091;47.446;19.148;2023-12-04T06:54:08;50.97;;;24.95;;
71303;SDS011;59091;47.446;19.148;2023-12-04T06:56:33;46.33;;;23.48;;
71303;SDS011;59091;47.446;19.148;2023-12-04T06:58:59;46.53;;;24.85;;
71303;SDS011;59091;47.446;19.148;2023-12-04T07:01:24;47.85;;;23.63;;
71303;SDS011;59091;47.446;19.148;2023-12-04T07:03:50;56.15;;;23.52;;
71303;SDS011;59091;47.446;19.148;2023-12-04T07:06:15;60.20;;;27.15;;
71303;SDS011;59091;47.446;19.148;2023-12-04T07:08:40;63.03;;;28.52;;
71303;SDS011;59091;47.446;19.148;2023-12-04T07:11:06;56.53;;;27.75;;
71303;SDS011;59091;47.446;19.148;2023-12-04T07:13:33;52.85;;;26.80;;
71303;SDS011;59091;47.446;19.148;2023-12-04T07:15:58;56.13;;;27.23;;
71303;SDS011;59091;47.446;19.148;2023-12-04T07:18:25;51.65;;;24.90;;
71303;SDS011;59091;47.446;19.148;2023-12-04T07:20:51;50.70;;;24.45;;
71303;SDS011;59091;47.446;19.148;2023-12-04T07:23:16;47.78;;;22.58;;
71303;SDS011;59091;47.446;19.148;2023-12-04T07:25:42;47.97;;;21.92;;
71303;SDS011;59091;47.446;19.148;2023-12-04T07:28:07;53.05;;;21.20;;
71303;SDS011;59091;47.446;19.148;2023-12-04T07:30:33;44.95;;;21.77;;
71303;SDS011;59091;47.446;19.148;2023-12-04T07:32:58;40.17;;;19.55;;
71303;SDS011;59091;47.446;19.148;2023-12-04T07:35:24;36.72;;;18.63;;
71303;SDS011;59091;47.446;19.148;2023-12-04T07:37:50;34.50;;;18.02;;
71303;SDS011;59091;47.446;19.148;2023-12-04T07:40:16;38.47;;;18.23;;
71303;SDS011;59091;47.446;19.148;2023-12-04T07:42:41;35.70;;;18.35;;
71303;SDS011;59091;47.446;19.148;2023-12-04T07:45:08;38.42;;;17.38;;
71303;SDS011;59091;47.446;19.148;2023-12-04T07:47:35;34.80;;;17.17;;
71303;SDS011;59091;47.446;19.148;2023-12-04T07:50:01;32.95;;;16.85;;
71303;SDS011;59091;47.446;19.148;2023-12-04T07:52:26;31.05;;;16.60;;
71303;SDS011;59091;47.446;19.148;2023-12-04T07:54:52;39.97;;;18.02;;
71303;SDS011;59091;47.446;19.148;2023-12-04T07:57:17;43.42;;;19.38;;
71303;SDS011;59091;47.446;19.148;2023-12-04T07:59:43;42.67;;;19.40;;
71303;SDS011;59091;47.446;19.148;2023-12-04T08:02:09;35.40;;;16.63;;
71303;SDS011;59091;47.446;19.148;2023-12-04T08:04:34;38.08;;;18.27;;
71303;SDS011;59091;47.446;19.148;2023-12-04T08:06:59;34.60;;;16.98;;
71303;SDS011;59091;47.446;19.148;2023-12-04T08:09:25;30.00;;;16.13;;
71303;SDS011;59091;47.446;19.148;2023-12-04T08:11:51;27.15;;;13.65;;
71303;SDS011;59091;47.446;19.148;2023-12-04T08:14:17;37.15;;;18.48;;
71303;SDS011;59091;47.446;19.148;2023-12-04T08:16:42;37.63;;;19.10;;
71303;SDS011;59091;47.446;19.148;2023-12-04T08:19:08;37.22;;;18.33;;
71303;SDS011;59091;47.446;19.148;2023-12-04T08:21:33;33.90;;;16.80;;
71303;SDS011;59091;47.446;19.148;2023-12-04T08:23:59;35.40;;;17.48;;
71303;SDS011;59091;47.446;19.148;2023-12-04T08:26:24;31.98;;;16.70;;
71303;SDS011;59091;47.446;19.148;2023-12-04T08:28:56;34.03;;;17.38;;
71303;SDS011;59091;47.446;19.148;2023-12-04T08:31:21;30.70;;;15.77;;
71303;SDS011;59091;47.446;19.148;2023-12-04T08:33:47;32.97;;;17.23;;
71303;SDS011;59091;47.446;19.148;2023-12-04T08:36:12;26.05;;;15.07;;
71303;SDS011;59091;47.446;19.148;2023-12-04T08:38:38;30.17;;;16.58;;
71303;SDS011;59091;47.446;19.148;2023-12-04T08:41:04;31.20;;;15.00;;
71303;SDS011;59091;47.446;19.148;2023-12-04T08:43:30;32.83;;;16.05;;
71303;SDS011;59091;47.446;19.148;2023-12-04T08:45:55;29.40;;;15.82;;
71303;SDS011;59091;47.446;19.148;2023-12-04T08:48:20;31.77;;;15.85;;
71303;SDS011;59091;47.446;19.148;2023-12-04T08:50:47;31.52;;;16.58;;
71303;SDS011;59091;47.446;19.148;2023-12-04T08:53:13;39.08;;;19.08;;
71303;SDS011;59091;47.446;19.148;2023-12-04T08:55:38;55.92;;;22.80;;
71303;SDS011;59091;47.446;19.148;2023-12-04T08:58:04;57.58;;;25.40;;
71303;SDS011;59091;47.446;19.148;2023-12-04T09:00:29;56.20;;;23.60;;
71303;SDS011;59091;47.446;19.148;2023-12-04T09:02:55;45.97;;;22.67;;
71303;SDS011;59091;47.446;19.148;2023-12-04T09:05:20;32.92;;;17.98;;
71303;SDS011;59091;47.446;19.148;2023-12-04T09:07:46;34.72;;;17.88;;
71303;SDS011;59091;47.446;19.148;2023-12-04T09:10:11;29.83;;;16.05;;
71303;SDS011;59091;47.446;19.148;2023-12-04T09:12:37;31.60;;;15.90;;
71303;SDS011;59091;47.446;19.148;2023-12-04T09:15:09;27.13;;;15.32;;
71303;SDS011;59091;47.446;19.148;2023-12-04T09:17:35;28.67;;;16.42;;
71303;SDS011;59091;47.446;19.148;2023-12-04T09:20:00;32.40;;;17.17;;
71303;SDS011;59091;47.446;19.148;2023-12-04T09:22:25;29.25;;;16.23;;
71303;SDS011;59091;47.446;19.148;2023-12-04T09:24:51;28.63;;;15.35;;
71303;SDS011;59091;47.446;19.148;2023-12-04T09:27:16;31.67;;;15.65;;
71303;SDS011;59091;47.446;19.148;2023-12-04T09:29:42;31.60;;;15.80;;
71303;SDS011;59091;47.446;19.148;2023-12-04T09:32:07;33.80;;;17.75;;
71303;SDS011;59091;47.446;19.148;2023-12-04T09:34:33;31.98;;;17.42;;
71303;SDS011;59091;47.446;19.148;2023-12-04T09:36:58;34.22;;;17.58;;
71303;SDS011;59091;47.446;19.148;2023-12-04T09:39:24;36.90;;;18.05;;
71303;SDS011;59091;47.446;19.148;2023-12-04T09:41:49;40.67;;;18.02;;
71303;SDS011;59091;47.446;19.148;2023-12-04T09:44:15;31.17;;;17.00;;
71303;SDS011;59091;47.446;19.148;2023-12-04T09:46:41;29.30;;;16.05;;
71303;SDS011;59091;47.446;19.148;2023-12-04T09:49:07;30.98;;;16.33;;
71303;SDS011;59091;47.446;19.148;2023-12-04T09:51:33;27.65;;;14.55;;
71303;SDS011;59091;47.446;19.148;2023-12-04T09:54:00;23.08;;;13.10;;
71303;SDS011;59091;47.446;19.148;2023-12-04T09:56:28;28.10;;;12.00;;
71303;SDS011;59091;47.446;19.148;2023-12-04T09:58:57;25.75;;;12.35;;
71303;SDS011;59091;47.446;19.148;2023-12-04T10:01:29;26.88;;;12.25;;
71303;SDS011;59091;47.446;19.148;2023-12-04T10:03:58;19.77;;;10.57;;
71303;SDS011;59091;47.446;19.148;2023-12-04T10:06:28;20.77;;;10.63;;
71303;SDS011;59091;47.446;19.148;2023-12-04T10:08:56;17.30;;;9.60;;
71303;SDS011;59091;47.446;19.148;2023-12-04T10:11:23;15.88;;;8.98;;
71303;SDS011;59091;47.446;19.148;2023-12-04T10:13:50;15.45;;;9.35;;
71303;SDS011;59091;47.446;19.148;2023-12-04T10:16:31;28.48;;;10.63;;
71303;SDS011;59091;47.446;19.148;2023-12-04T10:21:58;18.48;;;9.35;;
71303;SDS011;59091;47.446;19.148;2023-12-04T10:24:33;14.80;;;8.63;;
71303;SDS011;59091;47.446;19.148;2023-12-04T10:27:01;15.73;;;9.43;;
71303;SDS011;59091;47.446;19.148;2023-12-04T10:29:29;16.08;;;9.20;;
71303;SDS011;59091;47.446;19.148;2023-12-04T10:32:11;15.55;;;8.73;;
71303;SDS011;59091;47.446;19.148;2023-12-04T10:34:37;16.67;;;8.88;;
71303;SDS011;59091;47.446;19.148;2023-12-04T10:37:04;17.08;;;8.40;;
71303;SDS011;59091;47.446;19.148;2023-12-04T10:39:30;14.68;;;9.25;;
71303;SDS011;59091;47.446;19.148;2023-12-04T10:41:59;12.30;;;8.23;;
71303;SDS011;59091;47.446;19.148;2023-12-04T10:44:27;15.18;;;8.73;;
71303;SDS011;59091;47.446;19.148;2023-12-04T10:46:54;13.10;;;8.65;;
71303;SDS011;59091;47.446;19.148;2023-12-04T10:49:24;14.35;;;8.77;;
71303;SDS011;59091;47.446;19.148;2023-12-04T10:51:51;18.98;;;10.15;;
71303;SDS011;59091;47.446;19.148;2023-12-04T10:54:18;23.17;;;11.50;;
71303;SDS011;59091;47.446;19.148;2023-12-04T10:56:43;29.45;;;13.88;;
71303;SDS011;59091;47.446;19.148;2023-12-04T10:59:11;23.05;;;11.85;;
71303;SDS011;59091;47.446;19.148;2023-12-04T11:01:44;19.88;;;11.27;;
71303;SDS011;59091;47.446;19.148;2023-12-04T11:04:12;19.90;;;11.45;;
71303;SDS011;59091;47.446;19.148;2023-12-04T11:06:43;17.92;;;10.55;;
71303;SDS011;59091;47.446;19.148;2023-12-04T11:09:15;19.38;;;10.98;;
71303;SDS011;59091;47.446;19.148;2023-12-04T11:11:43;22.40;;;11.13;;
71303;SDS011;59091;47.446;19.148;2023-12-04T11:14:15;22.98;;;11.98;;
71303;SDS011;59091;47.446;19.148;2023-12-04T11:16:47;19.08;;;10.27;;
71303;SDS011;59091;47.446;19.148;2023-12-04T11:22:15;15.80;;;9.20;;
71303;SDS011;59091;47.446;19.148;2023-12-04T11:24:45;16.23;;;8.90;;
71303;SDS011;59091;47.446;19.148;2023-12-04T11:27:13;14.93;;;9.05;;
71303;SDS011;59091;47.446;19.148;2023-12-04T11:29:40;19.73;;;10.40;;
71303;SDS011;59091;47.446;19.148;2023-12-04T11:32:06;15.38;;;8.35;;
71303;SDS011;59091;47.446;19.148;2023-12-04T11:34:32;15.00;;;9.07;;
71303;SDS011;59091;47.446;19.148;2023-12-04T11:36:57;15.02;;;8.18;;
71303;SDS011;59091;47.446;19.148;2023-12-04T11:39:25;14.57;;;8.75;;
71303;SDS011;59091;47.446;19.148;2023-12-04T11:41:51;15.98;;;9.48;;
71303;SDS011;59091;47.446;19.148;2023-12-04T11:44:17;20.92;;;9.80;;
71303;SDS011;59091;47.446;19.148;2023-12-04T11:46:56;12.23;;;7.72;;
71303;SDS011;59091;47.446;19.148;2023-12-04T11:49:26;13.65;;;7.75;;
71303;SDS011;59091;47.446;19.148;2023-12-04T11:51:57;11.82;;;7.85;;
71303;SDS011;59091;47.446;19.148;2023-12-04T11:54:27;12.80;;;7.65;;
71303;SDS011;59091;47.446;19.148;2023-12-04T11:56:59;13.57;;;7.63;;
71303;SDS011;59091;47.446;19.148;2023-12-04T11:59:25;11.52;;;7.45;;
71303;SDS011;59091;47.446;19.148;2023-12-04T12:01:53;11.57;;;5.90;;
71303;SDS011;59091;47.446;19.148;2023-12-04T12:04:21;20.73;;;9.02;;
71303;SDS011;59091;47.446;19.148;2023-12-04T12:06:46;16.15;;;8.48;;
71303;SDS011;59091;47.446;19.148;2023-12-04T12:09:12;13.15;;;7.80;;
71303;SDS011;59091;47.446;19.148;2023-12-04T12:11:38;12.38;;;7.43;;
71303;SDS011;59091;47.446;19.148;2023-12-04T12:14:04;13.90;;;8.20;;
71303;SDS011;59091;47.446;19.148;2023-12-04T12:16:31;11.57;;;8.02;;
71303;SDS011;59091;47.446;19.148;2023-12-04T12:18:57;9.85;;;7.25;;
71303;SDS011;59091;47.446;19.148;2023-12-04T12:21:22;11.65;;;7.22;;
71303;SDS011;59091;47.446;19.148;2023-12-04T12:23:48;15.60;;;8.55;;
71303;SDS011;59091;47.446;19.148;2023-12-04T12:26:13;10.90;;;7.10;;
71303;SDS011;59091;47.446;19.148;2023-12-04T12:28:39;12.73;;;7.82;;
71303;SDS011;59091;47.446;19.148;2023-12-04T12:31:04;11.40;;;7.13;;
71303;SDS011;59091;47.446;19.148;2023-12-04T12:33:30;13.05;;;7.78;;
71303;SDS011;59091;47.446;19.148;2023-12-04T12:35:56;14.90;;;7.50;;
71303;SDS011;59091;47.446;19.148;2023-12-04T12:38:23;13.50;;;8.07;;
71303;SDS011;59091;47.446;19.148;2023-12-04T12:40:48;11.60;;;8.20;;
71303;SDS011;59091;47.446;19.148;2023-12-04T12:43:14;15.75;;;8.18;;
71303;SDS011;59091;47.446;19.148;2023-12-04T12:45:40;14.75;;;8.25;;
71303;SDS011;59091;47.446;19.148;2023-12-04T12:48:09;11.95;;;7.88;;
71303;SDS011;59091;47.446;19.148;2023-12-04T12:50:38;14.55;;;9.00;;
71303;SDS011;59091;47.446;19.148;2023-12-04T12:53:03;12.23;;;8.25;;
71303;SDS011;59091;47.446;19.148;2023-12-04T12:55:29;12.23;;;7.65;;
71303;SDS011;59091;47.446;19.148;2023-12-04T12:57:57;12.18;;;6.78;;
71303;SDS011;59091;47.446;19.148;2023-12-04T13:00:23;12.55;;;7.95;;
71303;SDS011;59091;47.446;19.148;2023-12-04T13:02:52;13.32;;;8.13;;
71303;SDS011;59091;47.446;19.148;2023-12-04T13:05:18;12.75;;;7.75;;
71303;SDS011;59091;47.446;19.148;2023-12-04T13:07:45;15.70;;;8.05;;
71303;SDS011;59091;47.446;19.148;2023-12-04T13:10:10;15.52;;;7.40;;
71303;SDS011;59091;47.446;19.148;2023-12-04T13:12:36;12.60;;;8.27;;
71303;SDS011;59091;47.446;19.148;2023-12-04T13:15:02;14.95;;;8.40;;
71303;SDS011;59091;47.446;19.148;2023-12-04T13:17:28;12.60;;;7.57;;
71303;SDS011;59091;47.446;19.148;2023-12-04T13:19:54;15.10;;;8.48;;
71303;SDS011;59091;47.446;19.148;2023-12-04T13:22:19;16.02;;;8.90;;
71303;SDS011;59091;47.446;19.148;2023-12-04T13:24:45;18.17;;;9.50;;
71303;SDS011;59091;47.446;19.148;2023-12-04T13:27:10;15.70;;;9.77;;
71303;SDS011;59091;47.446;19.148;2023-12-04T13:29:36;20.30;;;9.65;;
71303;SDS011;59091;47.446;19.148;2023-12-04T13:32:02;16.25;;;9.68;;
71303;SDS011;59091;47.446;19.148;2023-12-04T13:34:29;19.92;;;9.60;;
71303;SDS011;59091;47.446;19.148;2023-12-04T13:36:54;14.75;;;9.27;;
71303;SDS011;59091;47.446;19.148;2023-12-04T13:39:20;18.10;;;9.77;;
71303;SDS011;59091;47.446;19.148;2023-12-04T13:41:52;15.75;;;9.20;;
71303;SDS011;59091;47.446;19.148;2023-12-04T13:44:36;19.63;;;9.27;;
71303;SDS011;59091;47.446;19.148;2023-12-04T13:47:02;23.17;;;10.65;;
71303;SDS011;59091;47.446;19.148;2023-12-04T13:49:28;19.88;;;10.07;;
71303;SDS011;59091;47.446;19.148;2023-12-04T13:51:54;25.20;;;10.48;;
71303;SDS011;59091;47.446;19.148;2023-12-04T13:54:20;25.50;;;11.48;;
71303;SDS011;59091;47.446;19.148;2023-12-04T13:56:50;20.23;;;11.95;;
71303;SDS011;59091;47.446;19.148;2023-12-04T13:59:20;21.98;;;11.23;;
71303;SDS011;59091;47.446;19.148;2023-12-04T14:01:47;21.45;;;11.43;;
71303;SDS011;59091;47.446;19.148;2023-12-04T14:04:17;25.27;;;12.10;;
71303;SDS011;59091;47.446;19.148;2023-12-04T14:06:43;18.63;;;10.35;;
71303;SDS011;59091;47.446;19.148;2023-12-04T14:09:09;24.45;;;13.07;;
71303;SDS011;59091;47.446;19.148;2023-12-04T14:11:39;22.30;;;12.20;;
71303;SDS011;59091;47.446;19.148;2023-12-04T14:14:05;27.50;;;13.48;;